sensor_id;sensor_type;location;lat;lon;timestamp;P1;durP1;ratioP1;P2;durP2;ratioP2
61911;SDS011;49973;52.084;5.412;2023-05-07T00:00:46;15.43;;;9.10;;
61911;SDS011;49973;52.084;5.412;2023-05-07T00:03:15;15.57;;;8.83;;
61911;SDS011;49973;52.084;5.412;2023-05-07T00:05:44;11.73;;;9.17;;
61911;SDS011;49973;52.084;5.412;2023-05-07T00:08:14;13.80;;;9.10;;
61911;SDS011;49973;52.084;5.412;2023-05-07T00:10:43;14.67;;;8.97;;
61911;SDS011;49973;52.084;5.412;2023-05-07T00:13:13;14.73;;;10.00;;
61911;SDS011;49973;52.084;5.412;2023-05-07T00:15:42;13.93;;;10.00;;
61911;SDS011;49973;52.084;5.412;2023-05-07T00:18:11;10.80;;;8.70;;
61911;SDS011;49973;52.084;5.412;2023-05-07T00:20:39;13.77;;;9.60;;
61911;SDS011;49973;52.084;5.412;2023-05-07T00:23:09;15.03;;;9.77;;
61911;SDS011;49973;52.084;5.412;2023-05-07T00:25:39;16.40;;;8.87;;
61911;SDS011;49973;52.084;5.412;2023-05-07T00:28:07;17.27;;;10.07;;
61911;SDS011;49973;52.084;5.412;2023-05-07T00:30:36;12.37;;;8.83;;
61911;SDS011;49973;52.084;5.412;2023-05-07T00:33:04;12.00;;;9.63;;
61911;SDS011;49973;52.084;5.412;2023-05-07T00:35:33;14.50;;;10.60;;
61911;SDS011;49973;52.084;5.412;2023-05-07T00:38:02;12.77;;;8.93;;
61911;SDS011;49973;52.084;5.412;2023-05-07T00:40:30;16.53;;;9.90;;
61911;SDS011;49973;52.084;5.412;2023-05-07T00:43:00;17.30;;;10.43;;
61911;SDS011;49973;52.084;5.412;2023-05-07T00:45:29;14.93;;;9.33;;
61911;SDS011;49973;52.084;5.412;2023-05-07T00:47:59;15.70;;;9.97;;
61911;SDS011;49973;52.084;5.412;2023-05-07T00:50:28;13.93;;;9.23;;
61911;SDS011;49973;52.084;5.412;2023-05-07T00:52:58;12.43;;;9.77;;
61911;SDS011;49973;52.084;5.412;2023-05-07T00:55:27;14.13;;;9.60;;
61911;SDS011;49973;52.084;5.412;2023-05-07T00:57:56;16.23;;;9.70;;
61911;SDS011;49973;52.084;5.412;2023-05-07T01:00:26;13.23;;;9.67;;
61911;SDS011;49973;52.084;5.412;2023-05-07T01:02:55;16.03;;;10.20;;
61911;SDS011;49973;52.084;5.412;2023-05-07T01:05:24;12.53;;;9.57;;
61911;SDS011;49973;52.084;5.412;2023-05-07T01:07:55;17.17;;;9.83;;
61911;SDS011;49973;52.084;5.412;2023-05-07T01:10:25;16.27;;;9.90;;
61911;SDS011;49973;52.084;5.412;2023-05-07T01:12:54;14.07;;;10.40;;
61911;SDS011;49973;52.084;5.412;2023-05-07T01:15:23;15.17;;;10.23;;
61911;SDS011;49973;52.084;5.412;2023-05-07T01:17:53;15.57;;;10.20;;
61911;SDS011;49973;52.084;5.412;2023-05-07T01:20:30;14.83;;;10.43;;
61911;SDS011;49973;52.084;5.412;2023-05-07T01:23:01;13.57;;;9.87;;
61911;SDS011;49973;52.084;5.412;2023-05-07T01:25:31;12.17;;;9.20;;
61911;SDS011;49973;52.084;5.412;2023-05-07T01:28:01;17.67;;;10.80;;
61911;SDS011;49973;52.084;5.412;2023-05-07T01:30:33;15.30;;;9.27;;
61911;SDS011;49973;52.084;5.412;2023-05-07T01:33:08;11.73;;;9.57;;
61911;SDS011;49973;52.084;5.412;2023-05-07T01:35:39;17.10;;;10.13;;
61911;SDS011;49973;52.084;5.412;2023-05-07T01:38:13;14.23;;;9.90;;
61911;SDS011;49973;52.084;5.412;2023-05-07T01:40:41;11.87;;;9.47;;
61911;SDS011;49973;52.084;5.412;2023-05-07T01:43:11;13.60;;;10.20;;
61911;SDS011;49973;52.084;5.412;2023-05-07T01:45:41;14.03;;;9.60;;
61911;SDS011;49973;52.084;5.412;2023-05-07T01:48:11;13.77;;;10.47;;
61911;SDS011;49973;52.084;5.412;2023-05-07T01:50:40;14.83;;;9.80;;
61911;SDS011;49973;52.084;5.412;2023-05-07T01:53:10;13.27;;;9.60;;
61911;SDS011;49973;52.084;5.412;2023-05-07T01:55:40;16.70;;;10.07;;
61911;SDS011;49973;52.084;5.412;2023-05-07T01:58:09;13.43;;;9.47;;
61911;SDS011;49973;52.084;5.412;2023-05-07T02:00:39;15.33;;;10.17;;
61911;SDS011;49973;52.084;5.412;2023-05-07T02:03:08;17.70;;;11.27;;
61911;SDS011;49973;52.084;5.412;2023-05-07T02:05:44;14.20;;;10.10;;
61911;SDS011;49973;52.084;5.412;2023-05-07T02:08:34;20.67;;;10.23;;
61911;SDS011;49973;52.084;5.412;2023-05-07T02:11:05;15.03;;;9.87;;
61911;SDS011;49973;52.084;5.412;2023-05-07T02:13:36;16.60;;;10.13;;
61911;SDS011;49973;52.084;5.412;2023-05-07T02:16:04;13.77;;;10.13;;
61911;SDS011;49973;52.084;5.412;2023-05-07T02:18:33;28.43;;;10.10;;
61911;SDS011;49973;52.084;5.412;2023-05-07T02:21:02;12.23;;;9.33;;
61911;SDS011;49973;52.084;5.412;2023-05-07T02:23:32;14.70;;;10.03;;
61911;SDS011;49973;52.084;5.412;2023-05-07T02:26:01;14.47;;;9.00;;
61911;SDS011;49973;52.084;5.412;2023-05-07T02:28:34;11.77;;;9.13;;
61911;SDS011;49973;52.084;5.412;2023-05-07T02:31:04;16.13;;;11.00;;
61911;SDS011;49973;52.084;5.412;2023-05-07T02:33:34;15.40;;;9.93;;
61911;SDS011;49973;52.084;5.412;2023-05-07T02:36:06;14.50;;;10.90;;
61911;SDS011;49973;52.084;5.412;2023-05-07T02:38:40;15.27;;;9.97;;
61911;SDS011;49973;52.084;5.412;2023-05-07T02:41:09;19.10;;;10.50;;
61911;SDS011;49973;52.084;5.412;2023-05-07T02:43:39;11.77;;;9.37;;
61911;SDS011;49973;52.084;5.412;2023-05-07T02:46:09;17.97;;;9.93;;
61911;SDS011;49973;52.084;5.412;2023-05-07T02:48:41;11.07;;;9.00;;
61911;SDS011;49973;52.084;5.412;2023-05-07T02:51:10;15.17;;;10.73;;
61911;SDS011;49973;52.084;5.412;2023-05-07T02:53:41;14.87;;;11.27;;
61911;SDS011;49973;52.084;5.412;2023-05-07T02:56:09;17.10;;;11.23;;
61911;SDS011;49973;52.084;5.412;2023-05-07T02:58:39;17.97;;;11.07;;
61911;SDS011;49973;52.084;5.412;2023-05-07T03:01:09;15.23;;;10.27;;
61911;SDS011;49973;52.084;5.412;2023-05-07T03:03:45;13.60;;;10.53;;
61911;SDS011;49973;52.084;5.412;2023-05-07T03:06:14;21.47;;;11.50;;
61911;SDS011;49973;52.084;5.412;2023-05-07T03:08:43;18.00;;;11.63;;
61911;SDS011;49973;52.084;5.412;2023-05-07T03:11:12;16.53;;;10.63;;
61911;SDS011;49973;52.084;5.412;2023-05-07T03:13:42;21.80;;;11.60;;
61911;SDS011;49973;52.084;5.412;2023-05-07T03:16:11;19.43;;;10.77;;
61911;SDS011;49973;52.084;5.412;2023-05-07T03:18:40;15.50;;;10.50;;
61911;SDS011;49973;52.084;5.412;2023-05-07T03:21:09;15.40;;;10.53;;
61911;SDS011;49973;52.084;5.412;2023-05-07T03:23:37;13.17;;;10.73;;
61911;SDS011;49973;52.084;5.412;2023-05-07T03:26:07;14.90;;;10.43;;
61911;SDS011;49973;52.084;5.412;2023-05-07T03:28:36;13.10;;;10.43;;
61911;SDS011;49973;52.084;5.412;2023-05-07T03:31:10;16.50;;;10.83;;
61911;SDS011;49973;52.084;5.412;2023-05-07T03:33:50;12.97;;;9.83;;
61911;SDS011;49973;52.084;5.412;2023-05-07T03:36:20;14.23;;;10.50;;
61911;SDS011;49973;52.084;5.412;2023-05-07T03:38:49;21.53;;;11.80;;
61911;SDS011;49973;52.084;5.412;2023-05-07T03:41:21;16.60;;;11.70;;
61911;SDS011;49973;52.084;5.412;2023-05-07T03:43:50;17.10;;;10.73;;
61911;SDS011;49973;52.084;5.412;2023-05-07T03:46:20;18.87;;;11.70;;
61911;SDS011;49973;52.084;5.412;2023-05-07T03:48:50;16.43;;;12.37;;
61911;SDS011;49973;52.084;5.412;2023-05-07T03:51:20;25.43;;;11.73;;
61911;SDS011;49973;52.084;5.412;2023-05-07T03:53:48;16.50;;;11.83;;
61911;SDS011;49973;52.084;5.412;2023-05-07T03:56:21;18.23;;;11.80;;
61911;SDS011;49973;52.084;5.412;2023-05-07T03:58:53;17.77;;;11.60;;
61911;SDS011;49973;52.084;5.412;2023-05-07T04:01:23;20.90;;;12.20;;
61911;SDS011;49973;52.084;5.412;2023-05-07T04:03:52;15.23;;;11.60;;
61911;SDS011;49973;52.084;5.412;2023-05-07T04:06:20;16.63;;;12.33;;
61911;SDS011;49973;52.084;5.412;2023-05-07T04:08:49;19.03;;;11.53;;
61911;SDS011;49973;52.084;5.412;2023-05-07T04:11:18;18.13;;;12.10;;
61911;SDS011;49973;52.084;5.412;2023-05-07T04:13:47;21.73;;;11.93;;
61911;SDS011;49973;52.084;5.412;2023-05-07T04:16:20;21.60;;;11.47;;
61911;SDS011;49973;52.084;5.412;2023-05-07T04:18:50;25.10;;;12.40;;
61911;SDS011;49973;52.084;5.412;2023-05-07T04:21:20;17.13;;;11.90;;
61911;SDS011;49973;52.084;5.412;2023-05-07T04:23:50;17.73;;;11.70;;
61911;SDS011;49973;52.084;5.412;2023-05-07T04:26:19;19.37;;;11.37;;
61911;SDS011;49973;52.084;5.412;2023-05-07T04:28:48;19.80;;;12.17;;
61911;SDS011;49973;52.084;5.412;2023-05-07T04:31:17;18.00;;;11.20;;
61911;SDS011;49973;52.084;5.412;2023-05-07T04:33:52;17.73;;;11.93;;
61911;SDS011;49973;52.084;5.412;2023-05-07T04:36:21;18.77;;;11.87;;
61911;SDS011;49973;52.084;5.412;2023-05-07T04:38:56;24.57;;;12.93;;
61911;SDS011;49973;52.084;5.412;2023-05-07T04:41:25;15.57;;;11.67;;
61911;SDS011;49973;52.084;5.412;2023-05-07T04:43:53;18.97;;;12.43;;
61911;SDS011;49973;52.084;5.412;2023-05-07T04:46:23;20.27;;;12.33;;
61911;SDS011;49973;52.084;5.412;2023-05-07T04:48:55;15.33;;;10.93;;
61911;SDS011;49973;52.084;5.412;2023-05-07T04:51:24;19.27;;;11.57;;
61911;SDS011;49973;52.084;5.412;2023-05-07T04:53:53;15.63;;;11.50;;
61911;SDS011;49973;52.084;5.412;2023-05-07T04:56:21;27.50;;;12.83;;
61911;SDS011;49973;52.084;5.412;2023-05-07T04:58:50;14.73;;;11.17;;
61911;SDS011;49973;52.084;5.412;2023-05-07T05:01:21;20.77;;;10.73;;
61911;SDS011;49973;52.084;5.412;2023-05-07T05:03:50;20.33;;;10.87;;
61911;SDS011;49973;52.084;5.412;2023-05-07T05:06:21;20.53;;;11.67;;
61911;SDS011;49973;52.084;5.412;2023-05-07T05:08:50;19.77;;;11.30;;
61911;SDS011;49973;52.084;5.412;2023-05-07T05:11:20;14.90;;;10.70;;
61911;SDS011;49973;52.084;5.412;2023-05-07T05:13:48;22.17;;;12.97;;
61911;SDS011;49973;52.084;5.412;2023-05-07T05:16:19;26.63;;;12.10;;
61911;SDS011;49973;52.084;5.412;2023-05-07T05:18:48;21.20;;;12.07;;
61911;SDS011;49973;52.084;5.412;2023-05-07T05:21:19;20.60;;;11.40;;
61911;SDS011;49973;52.084;5.412;2023-05-07T05:23:52;20.20;;;11.27;;
61911;SDS011;49973;52.084;5.412;2023-05-07T05:26:24;18.10;;;11.47;;
61911;SDS011;49973;52.084;5.412;2023-05-07T05:28:52;19.47;;;11.10;;
61911;SDS011;49973;52.084;5.412;2023-05-07T05:31:23;19.33;;;11.00;;
61911;SDS011;49973;52.084;5.412;2023-05-07T05:33:52;19.33;;;11.20;;
61911;SDS011;49973;52.084;5.412;2023-05-07T05:36:22;18.80;;;10.73;;
61911;SDS011;49973;52.084;5.412;2023-05-07T05:38:54;24.90;;;11.30;;
61911;SDS011;49973;52.084;5.412;2023-05-07T05:41:23;17.23;;;11.10;;
61911;SDS011;49973;52.084;5.412;2023-05-07T05:43:53;24.50;;;11.37;;
61911;SDS011;49973;52.084;5.412;2023-05-07T05:46:21;14.13;;;10.70;;
61911;SDS011;49973;52.084;5.412;2023-05-07T05:48:51;18.17;;;11.03;;
61911;SDS011;49973;52.084;5.412;2023-05-07T05:51:21;21.83;;;10.93;;
61911;SDS011;49973;52.084;5.412;2023-05-07T05:53:50;17.10;;;11.23;;
61911;SDS011;49973;52.084;5.412;2023-05-07T05:56:19;15.77;;;11.13;;
61911;SDS011;49973;52.084;5.412;2023-05-07T05:58:47;19.10;;;11.80;;
61911;SDS011;49973;52.084;5.412;2023-05-07T06:01:17;17.20;;;11.30;;
61911;SDS011;49973;52.084;5.412;2023-05-07T06:03:47;17.00;;;10.93;;
61911;SDS011;49973;52.084;5.412;2023-05-07T06:06:15;15.63;;;10.57;;
61911;SDS011;49973;52.084;5.412;2023-05-07T06:08:46;13.73;;;9.90;;
61911;SDS011;49973;52.084;5.412;2023-05-07T06:11:20;19.73;;;10.63;;
61911;SDS011;49973;52.084;5.412;2023-05-07T06:13:49;17.50;;;10.50;;
61911;SDS011;49973;52.084;5.412;2023-05-07T06:16:17;16.83;;;11.20;;
61911;SDS011;49973;52.084;5.412;2023-05-07T06:18:47;16.93;;;11.93;;
61911;SDS011;49973;52.084;5.412;2023-05-07T06:21:16;22.93;;;10.90;;
61911;SDS011;49973;52.084;5.412;2023-05-07T06:23:44;16.93;;;11.23;;
61911;SDS011;49973;52.084;5.412;2023-05-07T06:26:14;21.90;;;11.20;;
61911;SDS011;49973;52.084;5.412;2023-05-07T06:28:46;18.60;;;11.40;;
61911;SDS011;49973;52.084;5.412;2023-05-07T06:31:16;26.63;;;12.20;;
61911;SDS011;49973;52.084;5.412;2023-05-07T06:33:55;21.37;;;12.23;;
61911;SDS011;49973;52.084;5.412;2023-05-07T06:36:31;19.77;;;11.50;;
61911;SDS011;49973;52.084;5.412;2023-05-07T06:39:06;20.87;;;12.13;;
61911;SDS011;49973;52.084;5.412;2023-05-07T06:41:35;21.93;;;13.60;;
61911;SDS011;49973;52.084;5.412;2023-05-07T06:44:08;28.47;;;14.03;;
61911;SDS011;49973;52.084;5.412;2023-05-07T06:46:42;17.83;;;12.77;;
61911;SDS011;49973;52.084;5.412;2023-05-07T06:49:12;21.90;;;13.77;;
61911;SDS011;49973;52.084;5.412;2023-05-07T06:51:42;23.37;;;13.50;;
61911;SDS011;49973;52.084;5.412;2023-05-07T06:54:12;26.03;;;14.13;;
61911;SDS011;49973;52.084;5.412;2023-05-07T06:56:42;22.80;;;13.93;;
61911;SDS011;49973;52.084;5.412;2023-05-07T06:59:11;21.87;;;13.50;;
61911;SDS011;49973;52.084;5.412;2023-05-07T07:01:40;23.80;;;14.43;;
61911;SDS011;49973;52.084;5.412;2023-05-07T07:04:11;23.20;;;14.60;;
61911;SDS011;49973;52.084;5.412;2023-05-07T07:06:42;19.53;;;13.53;;
61911;SDS011;49973;52.084;5.412;2023-05-07T07:09:14;22.47;;;13.57;;
61911;SDS011;49973;52.084;5.412;2023-05-07T07:11:42;29.30;;;15.07;;
61911;SDS011;49973;52.084;5.412;2023-05-07T07:14:11;16.53;;;12.73;;
61911;SDS011;49973;52.084;5.412;2023-05-07T07:16:45;17.73;;;12.60;;
61911;SDS011;49973;52.084;5.412;2023-05-07T07:19:16;19.13;;;13.13;;
61911;SDS011;49973;52.084;5.412;2023-05-07T07:21:49;16.37;;;11.87;;
61911;SDS011;49973;52.084;5.412;2023-05-07T07:24:19;14.97;;;10.40;;
61911;SDS011;49973;52.084;5.412;2023-05-07T07:26:52;14.20;;;9.93;;
61911;SDS011;49973;52.084;5.412;2023-05-07T07:29:23;14.70;;;10.40;;
61911;SDS011;49973;52.084;5.412;2023-05-07T07:31:53;14.70;;;10.00;;
61911;SDS011;49973;52.084;5.412;2023-05-07T07:34:22;16.50;;;10.67;;
61911;SDS011;49973;52.084;5.412;2023-05-07T07:36:51;15.73;;;9.20;;
61911;SDS011;49973;52.084;5.412;2023-05-07T07:39:21;12.10;;;9.23;;
61911;SDS011;49973;52.084;5.412;2023-05-07T07:41:53;16.80;;;10.07;;
61911;SDS011;49973;52.084;5.412;2023-05-07T07:44:22;16.30;;;10.03;;
61911;SDS011;49973;52.084;5.412;2023-05-07T07:46:56;15.50;;;9.70;;
61911;SDS011;49973;52.084;5.412;2023-05-07T07:49:26;14.07;;;9.33;;
61911;SDS011;49973;52.084;5.412;2023-05-07T07:51:57;14.43;;;9.33;;
61911;SDS011;49973;52.084;5.412;2023-05-07T07:54:29;12.43;;;8.23;;
61911;SDS011;49973;52.084;5.412;2023-05-07T07:56:58;12.23;;;8.43;;
61911;SDS011;49973;52.084;5.412;2023-05-07T07:59:30;12.77;;;8.67;;
61911;SDS011;49973;52.084;5.412;2023-05-07T08:01:59;10.67;;;8.00;;
61911;SDS011;49973;52.084;5.412;2023-05-07T08:04:29;13.10;;;9.67;;
61911;SDS011;49973;52.084;5.412;2023-05-07T08:07:03;12.60;;;8.10;;
61911;SDS011;49973;52.084;5.412;2023-05-07T08:09:36;13.07;;;8.97;;
61911;SDS011;49973;52.084;5.412;2023-05-07T08:12:06;13.50;;;8.97;;
61911;SDS011;49973;52.084;5.412;2023-05-07T08:14:35;13.17;;;9.17;;
61911;SDS011;49973;52.084;5.412;2023-05-07T08:17:06;16.90;;;10.17;;
61911;SDS011;49973;52.084;5.412;2023-05-07T08:19:37;13.07;;;9.57;;
61911;SDS011;49973;52.084;5.412;2023-05-07T08:22:08;16.07;;;10.53;;
61911;SDS011;49973;52.084;5.412;2023-05-07T08:24:39;15.63;;;9.93;;
61911;SDS011;49973;52.084;5.412;2023-05-07T08:27:08;15.13;;;10.47;;
61911;SDS011;49973;52.084;5.412;2023-05-07T08:29:39;19.67;;;10.33;;
61911;SDS011;49973;52.084;5.412;2023-05-07T08:32:08;15.30;;;10.37;;
61911;SDS011;49973;52.084;5.412;2023-05-07T08:34:36;19.57;;;11.93;;
61911;SDS011;49973;52.084;5.412;2023-05-07T08:37:07;19.07;;;12.47;;
61911;SDS011;49973;52.084;5.412;2023-05-07T08:39:36;21.17;;;11.33;;
61911;SDS011;49973;52.084;5.412;2023-05-07T08:42:11;23.37;;;13.67;;
61911;SDS011;49973;52.084;5.412;2023-05-07T08:44:44;17.83;;;12.53;;
61911;SDS011;49973;52.084;5.412;2023-05-07T08:47:17;18.17;;;12.37;;
61911;SDS011;49973;52.084;5.412;2023-05-07T08:49:49;19.73;;;12.33;;
61911;SDS011;49973;52.084;5.412;2023-05-07T08:52:19;17.70;;;11.87;;
61911;SDS011;49973;52.084;5.412;2023-05-07T08:54:48;24.00;;;13.90;;
61911;SDS011;49973;52.084;5.412;2023-05-07T08:57:19;18.60;;;11.23;;
61911;SDS011;49973;52.084;5.412;2023-05-07T08:59:49;20.43;;;11.40;;
61911;SDS011;49973;52.084;5.412;2023-05-07T09:02:18;19.10;;;10.47;;
61911;SDS011;49973;52.084;5.412;2023-05-07T09:04:47;18.63;;;11.20;;
61911;SDS011;49973;52.084;5.412;2023-05-07T09:07:16;15.27;;;9.17;;
61911;SDS011;49973;52.084;5.412;2023-05-07T09:09:45;19.43;;;12.37;;
61911;SDS011;49973;52.084;5.412;2023-05-07T09:12:14;23.00;;;13.30;;
61911;SDS011;49973;52.084;5.412;2023-05-07T09:14:44;23.10;;;14.87;;
61911;SDS011;49973;52.084;5.412;2023-05-07T09:17:14;23.37;;;14.60;;
61911;SDS011;49973;52.084;5.412;2023-05-07T09:19:44;22.77;;;14.03;;
61911;SDS011;49973;52.084;5.412;2023-05-07T09:22:14;27.97;;;15.93;;
61911;SDS011;49973;52.084;5.412;2023-05-07T09:24:54;25.13;;;15.37;;
61911;SDS011;49973;52.084;5.412;2023-05-07T09:27:25;24.80;;;15.50;;
61911;SDS011;49973;52.084;5.412;2023-05-07T09:29:57;24.77;;;13.73;;
61911;SDS011;49973;52.084;5.412;2023-05-07T09:32:26;28.17;;;15.87;;
61911;SDS011;49973;52.084;5.412;2023-05-07T09:34:56;24.47;;;15.40;;
61911;SDS011;49973;52.084;5.412;2023-05-07T09:37:26;22.47;;;15.00;;
61911;SDS011;49973;52.084;5.412;2023-05-07T09:39:55;21.93;;;15.47;;
61911;SDS011;49973;52.084;5.412;2023-05-07T09:42:24;22.30;;;14.90;;
61911;SDS011;49973;52.084;5.412;2023-05-07T09:44:58;24.03;;;14.83;;
61911;SDS011;49973;52.084;5.412;2023-05-07T09:47:33;23.40;;;16.40;;
61911;SDS011;49973;52.084;5.412;2023-05-07T09:50:07;22.27;;;14.23;;
61911;SDS011;49973;52.084;5.412;2023-05-07T09:52:39;20.27;;;13.93;;
61911;SDS011;49973;52.084;5.412;2023-05-07T09:55:11;23.67;;;13.90;;
61911;SDS011;49973;52.084;5.412;2023-05-07T09:57:41;19.70;;;12.90;;
61911;SDS011;49973;52.084;5.412;2023-05-07T10:00:14;21.60;;;14.47;;
61911;SDS011;49973;52.084;5.412;2023-05-07T10:02:54;24.77;;;13.67;;
61911;SDS011;49973;52.084;5.412;2023-05-07T10:05:36;23.50;;;14.50;;
61911;SDS011;49973;52.084;5.412;2023-05-07T10:08:05;18.27;;;13.10;;
61911;SDS011;49973;52.084;5.412;2023-05-07T10:10:37;16.30;;;11.97;;
61911;SDS011;49973;52.084;5.412;2023-05-07T10:13:10;19.70;;;12.90;;
61911;SDS011;49973;52.084;5.412;2023-05-07T10:15:45;23.13;;;13.97;;
61911;SDS011;49973;52.084;5.412;2023-05-07T10:18:15;19.60;;;13.00;;
61911;SDS011;49973;52.084;5.412;2023-05-07T10:20:49;18.83;;;12.63;;
61911;SDS011;49973;52.084;5.412;2023-05-07T10:23:23;17.10;;;12.07;;
61911;SDS011;49973;52.084;5.412;2023-05-07T10:25:56;17.97;;;12.20;;
61911;SDS011;49973;52.084;5.412;2023-05-07T10:28:31;16.10;;;11.73;;
61911;SDS011;49973;52.084;5.412;2023-05-07T10:31:08;22.17;;;13.10;;
61911;SDS011;49973;52.084;5.412;2023-05-07T10:33:47;21.10;;;12.53;;
61911;SDS011;49973;52.084;5.412;2023-05-07T10:36:21;22.80;;;13.63;;
61911;SDS011;49973;52.084;5.412;2023-05-07T10:38:53;14.20;;;10.33;;
61911;SDS011;49973;52.084;5.412;2023-05-07T10:41:23;22.50;;;12.47;;
61911;SDS011;49973;52.084;5.412;2023-05-07T10:43:52;17.10;;;11.40;;
61911;SDS011;49973;52.084;5.412;2023-05-07T10:46:30;15.03;;;11.63;;
61911;SDS011;49973;52.084;5.412;2023-05-07T10:49:19;21.23;;;11.20;;
61911;SDS011;49973;52.084;5.412;2023-05-07T10:52:14;15.90;;;10.87;;
61911;SDS011;49973;52.084;5.412;2023-05-07T10:58:24;15.33;;;10.77;;
61911;SDS011;49973;52.084;5.412;2023-05-07T11:04:25;15.40;;;10.07;;
61911;SDS011;49973;52.084;5.412;2023-05-07T11:07:17;13.40;;;9.50;;
61911;SDS011;49973;52.084;5.412;2023-05-07T11:10:00;13.88;;;9.82;;
61911;SDS011;49973;52.084;5.412;2023-05-07T11:12:50;13.90;;;9.80;;
61911;SDS011;49973;52.084;5.412;2023-05-07T11:15:36;11.95;;;9.45;;
61911;SDS011;49973;52.084;5.412;2023-05-07T11:21:33;13.95;;;9.30;;
61911;SDS011;49973;52.084;5.412;2023-05-07T11:24:22;15.00;;;9.27;;
61911;SDS011;49973;52.084;5.412;2023-05-07T11:26:58;16.40;;;10.50;;
61911;SDS011;49973;52.084;5.412;2023-05-07T11:29:29;17.07;;;10.17;;
61911;SDS011;49973;52.084;5.412;2023-05-07T11:32:04;13.25;;;8.85;;
61911;SDS011;49973;52.084;5.412;2023-05-07T11:34:40;12.60;;;9.45;;
61911;SDS011;49973;52.084;5.412;2023-05-07T11:37:10;14.50;;;10.18;;
61911;SDS011;49973;52.084;5.412;2023-05-07T11:39:50;13.65;;;9.85;;
61911;SDS011;49973;52.084;5.412;2023-05-07T11:42:27;15.25;;;10.35;;
61911;SDS011;49973;52.084;5.412;2023-05-07T11:44:56;18.88;;;10.57;;
61911;SDS011;49973;52.084;5.412;2023-05-07T11:47:25;15.80;;;9.43;;
61911;SDS011;49973;52.084;5.412;2023-05-07T11:49:54;15.20;;;9.73;;
61911;SDS011;49973;52.084;5.412;2023-05-07T11:52:24;15.53;;;9.77;;
61911;SDS011;49973;52.084;5.412;2023-05-07T11:54:53;16.70;;;10.43;;
61911;SDS011;49973;52.084;5.412;2023-05-07T11:57:23;17.37;;;9.80;;
61911;SDS011;49973;52.084;5.412;2023-05-07T11:59:52;15.00;;;9.60;;
61911;SDS011;49973;52.084;5.412;2023-05-07T12:02:21;19.43;;;9.23;;
61911;SDS011;49973;52.084;5.412;2023-05-07T12:04:52;14.17;;;9.20;;
61911;SDS011;49973;52.084;5.412;2023-05-07T12:07:20;11.17;;;8.27;;
61911;SDS011;49973;52.084;5.412;2023-05-07T12:09:53;10.95;;;7.45;;
61911;SDS011;49973;52.084;5.412;2023-05-07T12:12:21;11.45;;;7.43;;
61911;SDS011;49973;52.084;5.412;2023-05-07T12:14:50;7.38;;;4.45;;
61911;SDS011;49973;52.084;5.412;2023-05-07T12:17:18;8.02;;;4.85;;
61911;SDS011;49973;52.084;5.412;2023-05-07T12:19:47;6.93;;;4.10;;
61911;SDS011;49973;52.084;5.412;2023-05-07T12:22:16;7.00;;;4.30;;
61911;SDS011;49973;52.084;5.412;2023-05-07T12:24:46;11.18;;;5.22;;
61911;SDS011;49973;52.084;5.412;2023-05-07T12:27:18;8.40;;;4.20;;
61911;SDS011;49973;52.084;5.412;2023-05-07T12:29:47;6.25;;;5.30;;
61911;SDS011;49973;52.084;5.412;2023-05-07T12:32:16;8.25;;;5.60;;
61911;SDS011;49973;52.084;5.412;2023-05-07T12:34:46;7.60;;;4.95;;
61911;SDS011;49973;52.084;5.412;2023-05-07T12:37:22;14.98;;;5.35;;
61911;SDS011;49973;52.084;5.412;2023-05-07T12:40:03;5.90;;;4.22;;
61911;SDS011;49973;52.084;5.412;2023-05-07T12:42:35;4.45;;;3.47;;
61911;SDS011;49973;52.084;5.412;2023-05-07T12:45:08;5.82;;;3.80;;
61911;SDS011;49973;52.084;5.412;2023-05-07T12:47:37;10.65;;;4.07;;
61911;SDS011;49973;52.084;5.412;2023-05-07T12:50:06;7.28;;;4.03;;
61911;SDS011;49973;52.084;5.412;2023-05-07T12:52:35;7.20;;;4.53;;
61911;SDS011;49973;52.084;5.412;2023-05-07T12:55:04;7.85;;;3.95;;
61911;SDS011;49973;52.084;5.412;2023-05-07T12:57:38;8.55;;;3.90;;
61911;SDS011;49973;52.084;5.412;2023-05-07T13:00:08;7.95;;;3.33;;
61911;SDS011;49973;52.084;5.412;2023-05-07T13:02:38;5.07;;;3.55;;
61911;SDS011;49973;52.084;5.412;2023-05-07T13:05:08;12.23;;;3.38;;
61911;SDS011;49973;52.084;5.412;2023-05-07T13:07:37;7.63;;;3.85;;
61911;SDS011;49973;52.084;5.412;2023-05-07T13:10:06;7.55;;;4.05;;
61911;SDS011;49973;52.084;5.412;2023-05-07T13:12:35;7.28;;;4.35;;
61911;SDS011;49973;52.084;5.412;2023-05-07T13:15:06;7.53;;;4.63;;
61911;SDS011;49973;52.084;5.412;2023-05-07T13:17:35;7.93;;;5.07;;
61911;SDS011;49973;52.084;5.412;2023-05-07T13:20:05;7.63;;;5.10;;
61911;SDS011;49973;52.084;5.412;2023-05-07T13:22:34;7.30;;;4.43;;
61911;SDS011;49973;52.084;5.412;2023-05-07T13:25:03;10.68;;;5.57;;
61911;SDS011;49973;52.084;5.412;2023-05-07T13:27:33;9.52;;;5.35;;
61911;SDS011;49973;52.084;5.412;2023-05-07T13:30:04;10.18;;;5.47;;
61911;SDS011;49973;52.084;5.412;2023-05-07T13:32:34;10.30;;;6.60;;
61911;SDS011;49973;52.084;5.412;2023-05-07T13:35:03;10.40;;;7.18;;
61911;SDS011;49973;52.084;5.412;2023-05-07T13:37:32;9.90;;;6.97;;
61911;SDS011;49973;52.084;5.412;2023-05-07T13:40:01;10.90;;;7.80;;
61911;SDS011;49973;52.084;5.412;2023-05-07T13:42:31;11.80;;;7.53;;
61911;SDS011;49973;52.084;5.412;2023-05-07T13:45:00;12.37;;;8.97;;
61911;SDS011;49973;52.084;5.412;2023-05-07T13:47:32;12.70;;;9.23;;
61911;SDS011;49973;52.084;5.412;2023-05-07T13:50:00;13.80;;;8.37;;
61911;SDS011;49973;52.084;5.412;2023-05-07T13:52:29;14.63;;;9.17;;
61911;SDS011;49973;52.084;5.412;2023-05-07T13:54:58;16.93;;;9.37;;
61911;SDS011;49973;52.084;5.412;2023-05-07T13:57:26;11.93;;;9.23;;
61911;SDS011;49973;52.084;5.412;2023-05-07T13:59:55;18.23;;;10.43;;
61911;SDS011;49973;52.084;5.412;2023-05-07T14:02:23;15.83;;;9.17;;
61911;SDS011;49973;52.084;5.412;2023-05-07T14:04:53;16.00;;;9.67;;
61911;SDS011;49973;52.084;5.412;2023-05-07T14:07:22;14.03;;;10.20;;
61911;SDS011;49973;52.084;5.412;2023-05-07T14:09:51;15.43;;;10.20;;
61911;SDS011;49973;52.084;5.412;2023-05-07T14:12:19;16.23;;;11.03;;
61911;SDS011;49973;52.084;5.412;2023-05-07T14:14:48;16.97;;;11.07;;
61911;SDS011;49973;52.084;5.412;2023-05-07T14:17:17;18.80;;;10.93;;
61911;SDS011;49973;52.084;5.412;2023-05-07T14:19:47;21.53;;;10.90;;
61911;SDS011;49973;52.084;5.412;2023-05-07T14:22:17;15.60;;;10.07;;
61911;SDS011;49973;52.084;5.412;2023-05-07T14:24:45;13.93;;;9.83;;
61911;SDS011;49973;52.084;5.412;2023-05-07T14:27:31;15.10;;;9.63;;
61911;SDS011;49973;52.084;5.412;2023-05-07T14:30:00;19.27;;;9.60;;
61911;SDS011;49973;52.084;5.412;2023-05-07T14:32:28;12.77;;;9.27;;
61911;SDS011;49973;52.084;5.412;2023-05-07T14:34:57;14.43;;;9.13;;
61911;SDS011;49973;52.084;5.412;2023-05-07T14:37:27;12.20;;;8.73;;
61911;SDS011;49973;52.084;5.412;2023-05-07T14:39:55;17.77;;;8.77;;
61911;SDS011;49973;52.084;5.412;2023-05-07T14:42:24;15.40;;;9.73;;
61911;SDS011;49973;52.084;5.412;2023-05-07T14:44:53;13.63;;;9.53;;
61911;SDS011;49973;52.084;5.412;2023-05-07T14:47:21;15.17;;;8.77;;
61911;SDS011;49973;52.084;5.412;2023-05-07T14:49:50;14.37;;;9.43;;
61911;SDS011;49973;52.084;5.412;2023-05-07T14:52:19;16.83;;;9.10;;
61911;SDS011;49973;52.084;5.412;2023-05-07T14:54:49;13.53;;;8.97;;
61911;SDS011;49973;52.084;5.412;2023-05-07T14:57:18;14.87;;;9.43;;
61911;SDS011;49973;52.084;5.412;2023-05-07T14:59:47;15.93;;;9.70;;